Terminal Aerodrome Forecast
Issued by NWS Buffalo, NY

Home | Current Version | Previous Version | Text Only | Print | Product List | Glossary On
Versions: 1 2 3 4 5 6 7 8 9 10 11 12 13 14 15 16 17 18 19 20 21 22 23 24 25
000
FTUS41 KBUF 200500 RRA
TAFART
TAF
KART 200541Z 2006/2106 18013KT P6SM FEW025 SCT045
     FM200900 18016KT P6SM SCT015 BKN250
      TEMPO 2009/2013 BKN015
     FM201300 19015G23KT P6SM SCT015 BKN035
     FM201800 20018G27KT P6SM BKN250
     FM210000 19016G26KT P6SM BKN050
     FM210500 19018KT P6SM BKN035=

USA.gov is the U.S. government's official web portal to all federal, state and local government web resources and services.